createdAt,value
2019-02-20T00:00:42.068Z,0.00
2019-02-20T00:01:42.056Z,0.00
2019-02-20T00:02:42.043Z,0.00
2019-02-20T00:03:42.034Z,0.00
2019-02-20T00:04:42.028Z,0.00
2019-02-20T00:05:42.012Z,0.00
2019-02-20T00:06:42.019Z,0.00
2019-02-20T00:07:42.000Z,0.00
2019-02-20T00:08:41.978Z,0.00
2019-02-20T00:09:41.976Z,0.00
2019-02-20T00:10:41.957Z,0.00
2019-02-20T00:11:41.950Z,0.00
2019-02-20T00:12:41.937Z,0.00
2019-02-20T00:13:42.224Z,0.00
2019-02-20T00:14:41.917Z,0.00
2019-02-20T00:15:41.907Z,0.00
2019-02-20T00:16:41.894Z,0.00
2019-02-20T00:17:41.887Z,0.00
2019-02-20T00:18:41.874Z,0.00
2019-02-20T00:19:41.865Z,0.00
2019-02-20T00:20:41.855Z,0.00
2019-02-20T00:22:41.828Z,0.00
2019-02-20T00:28:41.766Z,0.00
2019-02-20T00:29:41.753Z,0.00
2019-02-20T00:30:41.763Z,0.00
2019-02-20T00:31:41.737Z,0.00
2019-02-20T00:32:41.728Z,0.00
2019-02-20T00:33:41.713Z,0.00
2019-02-20T00:34:41.699Z,0.00
2019-02-20T00:35:41.693Z,0.00
2019-02-20T00:36:41.677Z,0.00
2019-02-20T00:37:41.668Z,0.00
2019-02-20T00:38:41.666Z,0.00
2019-02-20T00:39:41.647Z,0.00
2019-02-20T00:40:41.634Z,0.00
2019-02-20T00:41:41.624Z,0.00
2019-02-20T00:42:41.613Z,0.00
2019-02-20T00:43:41.603Z,0.00
2019-02-20T00:44:41.591Z,0.00
2019-02-20T00:45:41.583Z,0.00
2019-02-20T00:46:41.569Z,0.00
2019-02-20T00:47:41.561Z,0.00
2019-02-20T00:48:41.549Z,0.00
2019-02-20T00:49:41.536Z,0.00
2019-02-20T00:50:41.544Z,0.00
2019-02-20T00:51:41.517Z,0.00
2019-02-20T00:52:49.555Z,0.00
2019-02-20T00:53:42.596Z,0.00
2019-02-20T00:54:41.487Z,0.00
2019-02-20T00:55:41.476Z,0.00
2019-02-20T00:56:41.464Z,0.00
2019-02-20T00:57:41.450Z,0.00
2019-02-20T00:58:41.441Z,0.00
2019-02-20T00:59:41.433Z,0.00
2019-02-20T01:11:41.302Z,0.00
2019-02-20T01:12:41.308Z,0.00
2019-02-20T01:13:41.384Z,0.00
2019-02-20T01:14:41.271Z,0.00
2019-02-20T01:15:41.258Z,0.00
2019-02-20T01:16:41.263Z,0.00
2019-02-20T01:17:41.238Z,0.00
2019-02-20T01:18:41.226Z,0.00
2019-02-20T01:19:41.218Z,0.00
2019-02-20T01:20:41.210Z,0.00
2019-02-20T01:21:41.195Z,0.00
2019-02-20T01:22:41.183Z,0.00
2019-02-20T01:23:41.177Z,0.00
2019-02-20T01:24:41.165Z,0.00
2019-02-20T01:25:41.151Z,0.00
2019-02-20T01:26:41.140Z,0.00
2019-02-20T01:27:41.129Z,0.00
2019-02-20T01:28:41.118Z,0.00
2019-02-20T01:29:41.121Z,0.00
2019-02-20T01:30:41.101Z,0.00
2019-02-20T01:31:41.093Z,0.00
2019-02-20T01:32:41.075Z,0.00
2019-02-20T01:33:41.068Z,0.00
2019-02-20T01:34:41.057Z,0.00
2019-02-20T01:35:41.041Z,0.00
2019-02-20T01:36:41.038Z,0.00
2019-02-20T01:37:41.021Z,0.00
2019-02-20T01:38:41.010Z,0.00
2019-02-20T01:39:41.002Z,0.00
2019-02-20T01:40:40.991Z,0.00
2019-02-20T01:41:40.980Z,0.00
2019-02-20T01:42:40.968Z,0.00
2019-02-20T01:43:40.965Z,0.00
2019-02-20T01:44:40.949Z,0.00
2019-02-20T01:45:40.942Z,0.00
2019-02-20T01:46:40.926Z,0.00
2019-02-20T01:47:40.914Z,0.00
2019-02-20T01:48:40.903Z,0.00
2019-02-20T01:49:40.890Z,0.00
2019-02-20T01:50:40.880Z,0.00
2019-02-20T01:51:40.872Z,0.00
2019-02-20T01:52:40.962Z,0.00
2019-02-20T01:53:40.850Z,4.00
2019-02-20T01:54:40.848Z,4.00
2019-02-20T01:55:40.831Z,4.00
2019-02-20T01:56:40.820Z,4.00
2019-02-20T01:57:40.809Z,4.00
2019-02-20T01:58:40.796Z,4.00
2019-02-20T01:59:40.784Z,8.00
2019-02-20T02:00:40.782Z,8.00
2019-02-20T02:01:40.764Z,12.00
2019-02-20T02:02:40.755Z,12.00
2019-02-20T02:03:40.742Z,16.00
2019-02-20T02:04:40.731Z,16.00
2019-02-20T02:05:40.722Z,20.00
2019-02-20T02:06:40.710Z,24.00
2019-02-20T02:07:40.699Z,28.00
2019-02-20T02:08:40.688Z,36.00
2019-02-20T02:09:40.680Z,40.00
2019-02-20T02:10:40.778Z,44.00
2019-02-20T02:11:40.660Z,44.00
2019-02-20T02:12:40.648Z,52.00
2019-02-20T02:13:40.648Z,56.00
2019-02-20T02:14:40.624Z,60.00
2019-02-20T02:15:40.616Z,68.00
2019-02-20T02:16:40.602Z,80.00
2019-02-20T02:17:40.594Z,88.00
2019-02-20T02:18:40.582Z,96.00
2019-02-20T02:19:40.570Z,108.00
2019-02-20T02:20:40.559Z,124.00
2019-02-20T02:21:40.551Z,136.00
2019-02-20T02:22:40.543Z,156.00
2019-02-20T02:23:40.532Z,180.00
2019-02-20T02:24:40.522Z,204.00
2019-02-20T02:25:40.511Z,228.00
2019-02-20T02:26:40.499Z,252.00
2019-02-20T02:27:40.485Z,268.00
2019-02-20T02:28:40.476Z,288.00
2019-02-20T02:29:40.466Z,304.00
2019-02-20T02:30:40.460Z,316.00
2019-02-20T02:31:40.440Z,340.00
2019-02-20T02:32:40.432Z,368.00
2019-02-20T02:33:40.423Z,392.00
2019-02-20T02:34:40.413Z,420.00
2019-02-20T02:35:40.399Z,440.00
2019-02-20T02:36:40.495Z,468.00
2019-02-20T02:37:40.382Z,500.00
2019-02-20T02:38:40.475Z,536.00
2019-02-20T02:39:40.358Z,572.00
2019-02-20T02:40:40.351Z,612.00
2019-02-20T02:41:40.337Z,640.00
2019-02-20T02:42:40.329Z,664.00
2019-02-20T02:43:40.321Z,680.00
2019-02-20T02:44:40.305Z,700.00
2019-02-20T02:45:40.293Z,712.00
2019-02-20T02:46:40.284Z,736.00
2019-02-20T02:47:40.275Z,764.00
2019-02-20T02:48:40.260Z,808.00
2019-02-20T02:49:40.248Z,852.00
2019-02-20T02:50:40.342Z,908.00
2019-02-20T02:51:40.231Z,960.00
2019-02-20T02:52:40.224Z,1008.00
2019-02-20T02:53:40.206Z,1052.00
2019-02-20T02:54:40.200Z,1096.00
2019-02-20T02:55:40.183Z,1132.00
2019-02-20T02:56:40.180Z,1168.00
2019-02-20T02:57:40.163Z,1204.00
2019-02-20T02:58:40.154Z,1236.00
2019-02-20T02:59:40.142Z,1288.00
2019-02-20T03:00:40.134Z,1356.00
2019-02-20T03:01:40.123Z,1472.00
2019-02-20T03:02:40.109Z,1584.00
2019-02-20T03:03:40.105Z,1736.00
2019-02-20T03:04:40.086Z,1888.00
2019-02-20T03:05:40.078Z,1960.00
2019-02-20T03:06:40.067Z,2148.00
2019-02-20T03:07:40.074Z,2328.00
2019-02-20T03:08:40.046Z,2512.00
2019-02-20T03:09:40.040Z,2824.00
2019-02-20T03:10:40.025Z,3156.00
2019-02-20T03:11:40.365Z,3100.00
2019-02-20T03:12:40.004Z,3032.00
2019-02-20T03:13:39.991Z,3372.00
2019-02-20T03:14:39.980Z,3348.00
2019-02-20T03:15:39.973Z,2972.00
2019-02-20T03:16:39.960Z,2892.00
2019-02-20T03:17:39.959Z,2812.00
2019-02-20T03:18:39.938Z,2740.00
2019-02-20T03:19:39.928Z,2704.00
2019-02-20T03:20:39.914Z,2684.00
2019-02-20T03:21:39.902Z,2716.00
2019-02-20T03:22:39.896Z,2740.00
2019-02-20T03:23:40.575Z,2720.00
2019-02-20T03:24:39.877Z,2844.00
2019-02-20T03:25:39.859Z,3176.00
2019-02-20T03:26:39.853Z,2980.00
2019-02-20T03:27:39.842Z,3052.00
2019-02-20T03:28:40.270Z,3156.00
2019-02-20T03:29:39.820Z,3340.00
2019-02-20T03:30:39.809Z,3568.00
2019-02-20T03:31:39.801Z,4416.00
2019-02-20T03:32:39.805Z,4352.00
2019-02-20T03:33:39.789Z,4880.00
2019-02-20T03:34:39.767Z,4832.00
2019-02-20T03:35:39.754Z,4692.00
2019-02-20T03:36:39.744Z,5236.00
2019-02-20T03:37:39.735Z,5252.00
2019-02-20T03:38:39.726Z,5056.00
2019-02-20T03:39:39.710Z,5344.00
2019-02-20T03:40:39.699Z,5416.00
2019-02-20T03:41:39.695Z,5408.00
2019-02-20T03:42:39.685Z,5224.00
2019-02-20T03:43:39.668Z,5492.00
2019-02-20T03:44:39.662Z,5468.00
2019-02-20T03:45:39.642Z,5252.00
2019-02-20T03:46:39.637Z,5196.00
2019-02-20T03:47:39.621Z,5348.00
2019-02-20T03:48:39.613Z,5316.00
2019-02-20T03:49:39.599Z,5236.00
2019-02-20T03:50:39.594Z,5244.00
2019-02-20T03:51:39.576Z,5256.00
2019-02-20T03:52:39.567Z,5248.00
2019-02-20T03:53:39.557Z,5244.00
2019-02-20T03:54:39.547Z,5216.00
2019-02-20T03:55:39.534Z,5184.00
2019-02-20T03:56:39.525Z,5160.00
2019-02-20T03:57:39.516Z,5160.00
2019-02-20T03:58:39.505Z,5184.00
2019-02-20T03:59:39.499Z,5220.00
2019-02-20T04:00:39.480Z,5288.00
2019-02-20T04:01:39.469Z,5348.00
2019-02-20T04:02:39.457Z,5432.00
2019-02-20T04:03:39.447Z,5464.00
2019-02-20T04:04:39.437Z,5348.00
2019-02-20T04:05:39.430Z,5248.00
2019-02-20T04:06:39.413Z,5276.00
2019-02-20T04:07:39.403Z,5368.00
2019-02-20T04:08:39.495Z,5456.00
2019-02-20T04:09:39.382Z,5536.00
2019-02-20T04:10:39.374Z,5636.00
2019-02-20T04:11:39.366Z,5708.00
2019-02-20T04:12:39.454Z,5688.00
2019-02-20T04:13:39.336Z,5576.00
2019-02-20T04:14:39.337Z,5568.00
2019-02-20T04:15:39.320Z,5564.00
2019-02-20T04:16:39.318Z,5636.00
2019-02-20T04:17:39.298Z,5672.00
2019-02-20T04:18:39.287Z,5672.00
2019-02-20T04:19:39.276Z,5656.00
2019-02-20T04:20:39.267Z,5668.00
2019-02-20T04:21:39.260Z,5700.00
2019-02-20T04:22:39.243Z,5724.00
2019-02-20T04:23:39.233Z,5732.00
2019-02-20T04:24:39.220Z,5736.00
2019-02-20T04:25:39.214Z,5720.00
2019-02-20T04:26:39.201Z,5720.00
2019-02-20T04:27:39.190Z,5728.00
2019-02-20T04:28:39.185Z,5688.00
2019-02-20T04:29:39.168Z,5608.00
2019-02-20T04:30:39.162Z,5556.00
2019-02-20T04:31:39.153Z,5580.00
2019-02-20T04:32:39.142Z,5584.00
2019-02-20T04:33:39.130Z,5548.00
2019-02-20T04:34:39.120Z,5532.00
2019-02-20T04:35:39.106Z,5572.00
2019-02-20T04:36:39.094Z,5680.00
2019-02-20T04:37:39.115Z,5804.00
2019-02-20T04:38:39.075Z,5916.00
2019-02-20T04:39:39.066Z,6072.00
2019-02-20T04:40:39.052Z,6260.00
2019-02-20T04:41:39.040Z,6356.00
2019-02-20T04:42:39.034Z,6436.00
2019-02-20T04:43:39.025Z,6492.00
2019-02-20T04:44:39.013Z,6428.00
2019-02-20T04:45:39.002Z,6212.00
2019-02-20T04:46:38.988Z,6168.00
2019-02-20T04:47:38.983Z,6144.00
2019-02-20T04:48:39.081Z,6068.00
2019-02-20T04:49:38.962Z,6084.00
2019-02-20T04:50:38.964Z,6180.00
2019-02-20T04:51:38.939Z,6100.00
2019-02-20T04:52:38.929Z,5988.00
2019-02-20T04:53:38.920Z,5844.00
2019-02-20T04:54:38.906Z,5752.00
2019-02-20T04:55:38.896Z,5728.00
2019-02-20T04:56:38.887Z,5816.00
2019-02-20T04:57:38.879Z,5996.00
2019-02-20T04:58:38.865Z,6136.00
2019-02-20T04:59:38.862Z,6148.00
2019-02-20T05:00:38.845Z,5988.00
2019-02-20T05:01:39.038Z,5856.00
2019-02-20T05:03:06.607Z,5784.00
2019-02-20T05:04:06.500Z,5832.00
2019-02-20T05:05:06.482Z,5848.00
2019-02-20T05:06:06.475Z,5832.00
2019-02-20T05:07:06.667Z,5856.00
2019-02-20T05:08:06.455Z,5916.00
2019-02-20T05:09:06.558Z,6024.00
2019-02-20T05:10:06.437Z,6168.00
2019-02-20T05:11:06.425Z,6324.00
2019-02-20T05:12:06.408Z,6392.00
2019-02-20T05:13:06.400Z,6380.00
2019-02-20T05:14:06.407Z,6356.00
2019-02-20T05:15:06.414Z,6336.00
2019-02-20T05:16:06.367Z,6396.00
2019-02-20T05:17:06.356Z,6540.00
2019-02-20T05:18:06.349Z,6612.00
2019-02-20T05:19:06.340Z,6600.00
2019-02-20T05:20:06.326Z,6564.00
2019-02-20T05:21:06.315Z,6672.00
2019-02-20T05:22:06.311Z,6992.00
2019-02-20T05:23:06.297Z,7112.00
2019-02-20T05:24:06.284Z,7092.00
2019-02-20T05:25:06.283Z,7076.00
2019-02-20T05:26:06.262Z,6972.00
2019-02-20T05:27:06.256Z,6860.00
2019-02-20T05:28:06.239Z,6812.00
2019-02-20T05:29:06.236Z,6856.00
2019-02-20T05:30:06.219Z,6948.00
2019-02-20T05:31:06.208Z,7044.00
2019-02-20T05:32:06.196Z,7112.00
2019-02-20T05:33:06.186Z,7208.00
2019-02-20T05:34:06.188Z,7228.00
2019-02-20T05:35:06.190Z,7212.00
2019-02-20T05:36:06.177Z,7184.00
2019-02-20T05:37:06.147Z,7084.00
2019-02-20T05:38:06.131Z,6972.00
2019-02-20T05:39:06.118Z,6844.00
2019-02-20T05:40:06.111Z,6608.00
2019-02-20T05:41:06.097Z,6388.00
2019-02-20T05:42:06.083Z,6312.00
2019-02-20T05:43:06.078Z,6284.00
2019-02-20T05:44:06.068Z,6276.00
2019-02-20T05:45:06.051Z,6256.00
2019-02-20T05:46:06.041Z,6280.00
2019-02-20T05:47:06.035Z,6316.00
2019-02-20T05:48:06.019Z,6360.00
2019-02-20T05:49:06.013Z,6432.00
2019-02-20T05:50:06.000Z,6472.00
2019-02-20T05:51:05.992Z,6404.00
2019-02-20T05:52:05.980Z,6304.00
2019-02-20T05:53:05.967Z,6344.00
2019-02-20T05:54:05.949Z,6540.00
2019-02-20T05:55:05.946Z,6800.00
2019-02-20T05:56:05.953Z,7136.00
2019-02-20T05:57:05.922Z,7496.00
2019-02-20T05:58:05.910Z,7844.00
2019-02-20T05:59:05.896Z,8160.00
2019-02-20T06:00:05.885Z,8324.00
2019-02-20T06:01:05.874Z,8320.00
2019-02-20T06:02:05.871Z,8020.00
2019-02-20T06:03:05.859Z,7784.00
2019-02-20T06:04:05.996Z,7588.00
2019-02-20T06:05:05.838Z,7340.00
2019-02-20T06:06:05.817Z,6824.00
2019-02-20T06:07:05.808Z,6320.00
2019-02-20T06:08:05.796Z,6196.00
2019-02-20T06:09:05.810Z,6300.00
2019-02-20T06:10:05.771Z,6508.00
2019-02-20T06:11:14.410Z,6812.00
2019-02-20T06:12:06.859Z,7136.00
2019-02-20T06:13:05.738Z,7404.00
2019-02-20T06:14:05.730Z,7612.00
2019-02-20T06:15:05.724Z,7672.00
2019-02-20T06:16:05.709Z,7596.00
2019-02-20T06:17:05.698Z,7496.00
2019-02-20T06:18:05.689Z,7420.00
2019-02-20T06:19:05.674Z,7360.00
2019-02-20T06:20:05.665Z,7280.00
2019-02-20T06:21:05.652Z,7236.00
2019-02-20T06:22:05.647Z,7332.00
2019-02-20T06:23:05.630Z,7436.00
2019-02-20T06:24:05.619Z,7520.00
2019-02-20T06:25:05.613Z,7560.00
2019-02-20T06:26:05.612Z,7556.00
2019-02-20T06:27:07.887Z,7556.00
2019-02-20T06:28:05.580Z,7484.00
2019-02-20T06:29:05.568Z,7420.00
2019-02-20T06:30:05.558Z,7420.00
2019-02-20T06:31:05.542Z,7576.00
2019-02-20T06:32:05.531Z,7660.00
2019-02-20T06:33:05.526Z,7576.00
2019-02-20T06:34:05.552Z,7480.00
2019-02-20T06:35:05.494Z,7396.00
2019-02-20T06:36:05.483Z,7364.00
2019-02-20T06:37:05.477Z,7112.00
2019-02-20T06:38:05.469Z,6684.00
2019-02-20T06:39:05.455Z,6260.00
2019-02-20T06:40:05.439Z,6004.00
2019-02-20T06:41:05.428Z,5776.00
2019-02-20T06:42:05.425Z,5404.00
2019-02-20T06:43:05.406Z,5016.00
2019-02-20T06:44:05.399Z,4764.00
2019-02-20T06:45:05.385Z,4632.00
2019-02-20T06:46:05.380Z,4572.00
2019-02-20T06:47:05.360Z,4656.00
2019-02-20T06:48:05.353Z,4784.00
2019-02-20T06:49:05.345Z,4796.00
2019-02-20T06:50:05.329Z,4780.00
2019-02-20T06:51:05.318Z,4736.00
2019-02-20T06:52:05.305Z,4716.00
2019-02-20T06:53:05.301Z,4700.00
2019-02-20T06:54:05.286Z,4704.00
2019-02-20T06:55:05.281Z,4732.00
2019-02-20T06:56:05.263Z,4732.00
2019-02-20T06:57:05.258Z,4736.00
2019-02-20T06:58:05.251Z,4800.00
2019-02-20T06:59:05.228Z,4852.00
2019-02-20T07:00:05.223Z,4872.00
2019-02-20T07:01:05.208Z,4852.00
2019-02-20T07:02:05.199Z,4896.00
2019-02-20T07:03:05.284Z,5096.00
2019-02-20T07:04:05.173Z,5324.00
2019-02-20T07:05:05.264Z,5444.00
2019-02-20T07:06:05.154Z,5456.00
2019-02-20T07:07:05.145Z,5328.00
2019-02-20T07:08:05.139Z,5304.00
2019-02-20T07:09:05.222Z,5304.00
2019-02-20T07:10:05.115Z,5380.00
2019-02-20T07:11:05.101Z,5416.00
2019-02-20T07:12:05.092Z,5528.00
2019-02-20T07:13:05.079Z,5692.00
2019-02-20T07:14:05.069Z,5808.00
2019-02-20T07:15:05.059Z,5888.00
2019-02-20T07:16:05.047Z,5944.00
2019-02-20T07:17:05.047Z,6120.00
2019-02-20T07:18:05.034Z,6352.00
2019-02-20T07:19:05.015Z,6512.00
2019-02-20T07:20:05.005Z,6756.00
2019-02-20T07:21:04.998Z,7012.00
2019-02-20T07:22:04.983Z,7152.00
2019-02-20T07:23:04.971Z,7060.00
2019-02-20T07:24:04.984Z,7292.00
2019-02-20T07:25:04.952Z,7792.00
2019-02-20T07:26:04.945Z,8216.00
2019-02-20T07:27:04.928Z,8368.00
2019-02-20T07:28:04.921Z,8180.00
2019-02-20T07:29:04.912Z,7944.00
2019-02-20T07:30:04.897Z,7836.00
2019-02-20T07:31:04.892Z,7712.00
2019-02-20T07:32:04.876Z,7504.00
2019-02-20T07:33:04.870Z,7248.00
2019-02-20T07:34:05.478Z,6948.00
2019-02-20T07:35:04.842Z,6672.00
2019-02-20T07:36:04.840Z,6404.00
2019-02-20T07:37:04.823Z,6148.00
2019-02-20T07:38:04.815Z,5908.00
2019-02-20T07:39:04.799Z,5640.00
2019-02-20T07:40:04.788Z,5296.00
2019-02-20T07:41:04.779Z,4908.00
2019-02-20T07:42:04.781Z,4548.00
2019-02-20T07:43:04.755Z,4312.00
2019-02-20T07:44:04.746Z,4160.00
2019-02-20T07:45:04.733Z,4008.00
2019-02-20T07:46:04.726Z,3852.00
2019-02-20T07:47:04.726Z,3668.00
2019-02-20T07:48:04.702Z,3536.00
2019-02-20T07:49:04.688Z,3424.00
2019-02-20T07:50:04.679Z,3384.00
2019-02-20T07:51:04.670Z,3472.00
2019-02-20T07:52:04.657Z,3544.00
2019-02-20T07:53:04.649Z,3560.00
2019-02-20T07:54:04.682Z,3544.00
2019-02-20T07:55:12.892Z,3520.00
2019-02-20T07:56:05.717Z,3500.00
2019-02-20T07:57:04.603Z,3488.00
2019-02-20T07:58:04.591Z,3488.00
2019-02-20T07:59:04.581Z,3544.00
2019-02-20T08:00:04.575Z,3732.00
2019-02-20T08:01:04.562Z,4072.00
2019-02-20T08:02:04.547Z,4404.00
2019-02-20T08:03:04.541Z,4584.00
2019-02-20T08:04:05.079Z,4572.00
2019-02-20T08:05:04.517Z,4468.00
2019-02-20T08:06:04.508Z,4400.00
2019-02-20T08:07:04.497Z,4300.00
2019-02-20T08:08:04.487Z,4256.00
2019-02-20T08:09:04.471Z,4348.00
2019-02-20T08:10:04.460Z,4484.00
2019-02-20T08:11:04.450Z,4612.00
2019-02-20T08:12:04.441Z,4776.00
2019-02-20T08:13:04.432Z,5012.00
2019-02-20T08:14:04.424Z,5220.00
2019-02-20T08:15:04.411Z,5276.00
2019-02-20T08:16:04.404Z,5244.00
2019-02-20T08:17:04.393Z,5168.00
2019-02-20T08:18:04.385Z,5080.00
2019-02-20T08:19:04.373Z,5124.00
2019-02-20T08:20:04.363Z,5308.00
2019-02-20T08:21:04.350Z,5448.00
2019-02-20T08:22:04.337Z,5412.00
2019-02-20T08:23:04.333Z,5300.00
2019-02-20T08:24:04.313Z,5268.00
2019-02-20T08:25:04.306Z,5260.00
2019-02-20T08:26:04.291Z,5288.00
2019-02-20T08:27:04.279Z,5372.00
2019-02-20T08:28:04.281Z,5492.00
2019-02-20T08:29:04.265Z,5516.00
2019-02-20T08:30:04.246Z,5480.00
2019-02-20T08:31:04.236Z,5480.00
2019-02-20T08:32:04.238Z,5464.00
2019-02-20T08:33:04.217Z,5476.00
2019-02-20T08:34:04.212Z,5564.00
2019-02-20T08:35:04.189Z,5660.00
2019-02-20T08:36:04.280Z,5764.00
2019-02-20T08:37:04.170Z,5828.00
2019-02-20T08:38:04.257Z,5776.00
2019-02-20T08:39:04.147Z,5672.00
2019-02-20T08:40:04.137Z,5668.00
2019-02-20T08:41:04.137Z,5668.00
2019-02-20T08:42:04.113Z,5624.00
2019-02-20T08:43:04.104Z,5492.00
2019-02-20T08:44:04.095Z,5304.00
2019-02-20T08:45:04.082Z,5144.00
2019-02-20T08:46:04.070Z,5008.00
2019-02-20T08:47:04.060Z,4876.00
2019-02-20T08:48:04.053Z,4776.00
2019-02-20T08:49:04.038Z,4708.00
2019-02-20T08:50:04.040Z,4628.00
2019-02-20T08:51:04.036Z,4448.00
2019-02-20T08:52:04.014Z,4228.00
2019-02-20T08:53:03.998Z,4140.00
2019-02-20T08:54:04.603Z,4232.00
2019-02-20T08:55:03.989Z,4456.00
2019-02-20T08:56:03.969Z,4680.00
2019-02-20T08:57:03.970Z,4936.00
2019-02-20T08:58:03.944Z,5068.00
2019-02-20T08:59:03.933Z,5092.00
2019-02-20T09:00:03.976Z,4928.00
2019-02-20T09:01:03.913Z,4672.00
2019-02-20T09:02:03.903Z,4488.00
2019-02-20T09:03:03.891Z,4344.00
2019-02-20T09:04:03.881Z,4316.00
2019-02-20T09:05:04.166Z,4232.00
2019-02-20T09:06:03.860Z,3988.00
2019-02-20T09:07:03.847Z,3724.00
2019-02-20T09:08:03.943Z,3760.00
2019-02-20T09:09:03.828Z,4148.00
2019-02-20T09:10:03.816Z,4740.00
2019-02-20T09:11:03.802Z,5240.00
2019-02-20T09:12:03.795Z,5400.00
2019-02-20T09:13:03.785Z,5280.00
2019-02-20T09:14:03.772Z,5092.00
2019-02-20T09:15:03.761Z,5012.00
2019-02-20T09:16:03.752Z,5008.00
2019-02-20T09:17:03.739Z,5056.00
2019-02-20T09:18:03.736Z,5144.00
2019-02-20T09:19:03.720Z,5196.00
2019-02-20T09:20:03.709Z,5180.00
2019-02-20T09:21:03.705Z,5112.00
2019-02-20T09:22:03.686Z,5012.00
2019-02-20T09:23:03.697Z,4848.00
2019-02-20T09:24:03.665Z,4708.00
2019-02-20T09:25:03.662Z,4632.00
2019-02-20T09:26:03.650Z,4592.00
2019-02-20T09:27:03.639Z,4444.00
2019-02-20T09:28:03.624Z,4172.00
2019-02-20T09:29:03.611Z,3964.00
2019-02-20T09:30:03.603Z,3868.00
2019-02-20T09:31:03.605Z,3768.00
2019-02-20T09:32:03.581Z,3572.00
2019-02-20T09:33:03.574Z,3360.00
2019-02-20T09:34:03.561Z,3160.00
2019-02-20T09:35:05.428Z,2996.00
2019-02-20T09:36:03.541Z,2912.00
2019-02-20T09:37:03.531Z,2912.00
2019-02-20T09:38:03.518Z,2920.00
2019-02-20T09:39:03.507Z,2840.00
2019-02-20T09:40:03.500Z,2624.00
2019-02-20T09:41:03.498Z,2356.00
2019-02-20T09:42:03.475Z,2144.00
2019-02-20T09:43:03.463Z,2016.00
2019-02-20T09:44:03.455Z,2012.00
2019-02-20T09:45:03.446Z,2104.00
2019-02-20T09:46:03.437Z,2216.00
2019-02-20T09:47:03.422Z,2296.00
2019-02-20T09:48:03.414Z,2384.00
2019-02-20T09:49:03.427Z,2456.00
2019-02-20T09:50:03.392Z,2476.00
2019-02-20T09:51:03.384Z,2516.00
2019-02-20T09:52:03.374Z,2556.00
2019-02-20T09:53:03.358Z,2588.00
2019-02-20T09:54:03.561Z,2652.00
2019-02-20T09:55:03.338Z,2724.00
2019-02-20T09:56:03.330Z,2800.00
2019-02-20T09:57:03.319Z,2884.00
2019-02-20T09:58:03.312Z,2952.00
2019-02-20T09:59:03.298Z,3012.00
2019-02-20T10:00:03.294Z,3056.00
2019-02-20T10:01:03.277Z,3056.00
2019-02-20T10:02:03.273Z,3020.00
2019-02-20T10:03:03.258Z,2980.00
2019-02-20T10:04:03.244Z,2948.00
2019-02-20T10:05:03.339Z,2928.00
2019-02-20T10:06:03.322Z,2868.00
2019-02-20T10:07:03.210Z,2760.00
2019-02-20T10:08:04.543Z,2560.00
2019-02-20T10:09:03.192Z,2340.00
2019-02-20T10:10:03.177Z,2184.00
2019-02-20T10:11:03.198Z,2108.00
2019-02-20T10:12:03.158Z,2104.00
2019-02-20T10:13:03.145Z,2148.00
2019-02-20T10:14:03.136Z,2196.00
2019-02-20T10:15:03.123Z,2208.00
2019-02-20T10:16:03.125Z,2188.00
2019-02-20T10:17:03.202Z,2172.00
2019-02-20T10:18:03.093Z,2156.00
2019-02-20T10:19:03.082Z,2168.00
2019-02-20T10:20:03.073Z,2224.00
2019-02-20T10:21:03.062Z,2316.00
2019-02-20T10:22:03.053Z,2388.00
2019-02-20T10:23:03.040Z,2412.00
2019-02-20T10:24:03.030Z,2384.00
2019-02-20T10:25:03.028Z,2292.00
2019-02-20T10:26:03.016Z,2164.00
2019-02-20T10:27:03.000Z,2052.00
2019-02-20T10:28:02.996Z,1984.00
2019-02-20T10:29:02.977Z,1976.00
2019-02-20T10:30:02.964Z,2028.00
2019-02-20T10:31:02.971Z,2108.00
2019-02-20T10:32:02.943Z,2204.00
2019-02-20T10:33:02.936Z,2292.00
2019-02-20T10:34:02.927Z,2356.00
2019-02-20T10:35:02.909Z,2412.00
2019-02-20T10:36:02.898Z,2448.00
2019-02-20T10:37:02.887Z,2484.00
2019-02-20T10:38:02.877Z,2548.00
2019-02-20T10:39:02.866Z,2604.00
2019-02-20T10:40:02.858Z,2592.00
2019-02-20T10:41:02.845Z,2520.00
2019-02-20T10:42:02.834Z,2408.00
2019-02-20T10:43:03.647Z,2304.00
2019-02-20T10:44:02.810Z,2196.00
2019-02-20T10:45:02.801Z,2128.00
2019-02-20T10:46:02.791Z,2064.00
2019-02-20T10:47:02.780Z,2008.00
2019-02-20T10:48:02.768Z,1928.00
2019-02-20T10:49:02.760Z,1864.00
2019-02-20T10:50:02.747Z,1780.00
2019-02-20T10:51:02.736Z,1680.00
2019-02-20T10:52:02.725Z,1580.00
2019-02-20T10:53:02.717Z,1484.00
2019-02-20T10:54:02.703Z,1380.00
2019-02-20T10:55:02.701Z,1280.00
2019-02-20T10:56:09.090Z,1232.00
2019-02-20T10:57:03.772Z,1268.00
2019-02-20T10:58:02.661Z,1344.00
2019-02-20T10:59:02.654Z,1400.00
2019-02-20T11:00:02.639Z,1444.00
2019-02-20T11:01:02.628Z,1392.00
2019-02-20T11:02:02.619Z,1348.00
2019-02-20T11:03:02.634Z,1360.00
2019-02-20T11:04:03.816Z,1344.00
2019-02-20T11:05:02.586Z,1312.00
2019-02-20T11:06:02.676Z,1260.00
2019-02-20T11:07:02.562Z,1200.00
2019-02-20T11:08:02.556Z,1096.00
2019-02-20T11:09:02.544Z,1016.00
2019-02-20T11:10:02.533Z,972.00
2019-02-20T11:11:02.521Z,932.00
2019-02-20T11:12:02.510Z,888.00
2019-02-20T11:13:02.498Z,844.00
2019-02-20T11:14:02.491Z,800.00
2019-02-20T11:15:02.480Z,776.00
2019-02-20T11:16:02.467Z,760.00
2019-02-20T11:17:02.454Z,744.00
2019-02-20T11:18:02.444Z,732.00
2019-02-20T11:19:02.432Z,732.00
2019-02-20T11:20:02.424Z,736.00
2019-02-20T11:21:02.412Z,736.00
2019-02-20T11:22:02.406Z,712.00
2019-02-20T11:23:02.389Z,680.00
2019-02-20T11:24:02.379Z,648.00
2019-02-20T11:25:02.370Z,636.00
2019-02-20T11:26:02.357Z,628.00
2019-02-20T11:27:02.348Z,616.00
2019-02-20T11:28:02.334Z,600.00
2019-02-20T11:29:02.328Z,576.00
2019-02-20T11:30:02.620Z,560.00
2019-02-20T11:31:02.305Z,552.00
2019-02-20T11:32:02.309Z,540.00
2019-02-20T11:33:03.425Z,532.00
2019-02-20T11:34:02.272Z,532.00
2019-02-20T11:35:02.260Z,516.00
2019-02-20T11:36:02.252Z,508.00
2019-02-20T11:37:02.240Z,496.00
2019-02-20T11:38:02.227Z,476.00
2019-02-20T11:39:02.224Z,464.00
2019-02-20T11:40:02.205Z,448.00
2019-02-20T11:41:02.194Z,440.00
2019-02-20T11:42:02.182Z,432.00
2019-02-20T11:43:02.173Z,436.00
2019-02-20T11:44:02.160Z,444.00
2019-02-20T11:45:02.149Z,444.00
2019-02-20T11:46:02.143Z,428.00
2019-02-20T11:47:02.128Z,420.00
2019-02-20T11:48:02.120Z,412.00
2019-02-20T11:49:02.105Z,408.00
2019-02-20T11:50:02.094Z,400.00
2019-02-20T11:51:02.081Z,408.00
2019-02-20T11:52:02.077Z,404.00
2019-02-20T11:53:02.065Z,392.00
2019-02-20T11:54:02.052Z,396.00
2019-02-20T11:55:02.041Z,400.00
2019-02-20T11:56:02.030Z,408.00
2019-02-20T11:57:02.017Z,408.00
2019-02-20T11:58:02.007Z,412.00
2019-02-20T11:59:02.001Z,412.00
2019-02-20T12:00:01.987Z,416.00
2019-02-20T12:01:01.973Z,412.00
2019-02-20T12:02:01.962Z,404.00
2019-02-20T12:03:01.956Z,376.00
2019-02-20T12:04:01.940Z,356.00
2019-02-20T12:05:01.934Z,356.00
2019-02-20T12:06:01.919Z,356.00
2019-02-20T12:07:02.058Z,356.00
2019-02-20T12:08:01.898Z,348.00
2019-02-20T12:09:01.886Z,332.00
2019-02-20T12:10:01.876Z,328.00
2019-02-20T12:11:01.871Z,316.00
2019-02-20T12:12:01.853Z,304.00
2019-02-20T12:13:01.842Z,296.00
2019-02-20T12:14:01.833Z,288.00
2019-02-20T12:15:01.865Z,284.00
2019-02-20T12:16:01.809Z,272.00
2019-02-20T12:17:01.797Z,264.00
2019-02-20T12:18:01.787Z,248.00
2019-02-20T12:19:01.774Z,240.00
2019-02-20T12:20:01.765Z,232.00
2019-02-20T12:21:01.754Z,224.00
2019-02-20T12:22:01.742Z,216.00
2019-02-20T12:23:01.733Z,220.00
2019-02-20T12:24:01.721Z,224.00
2019-02-20T12:25:01.710Z,224.00
2019-02-20T12:26:01.698Z,224.00
2019-02-20T12:27:01.707Z,212.00
2019-02-20T12:28:02.782Z,200.00
2019-02-20T12:29:01.668Z,184.00
2019-02-20T12:30:01.657Z,176.00
2019-02-20T12:31:01.646Z,172.00
2019-02-20T12:32:01.639Z,172.00
2019-02-20T12:33:01.624Z,172.00
2019-02-20T12:34:01.722Z,172.00
2019-02-20T12:35:01.601Z,164.00
2019-02-20T12:36:01.593Z,156.00
2019-02-20T12:37:01.579Z,152.00
2019-02-20T12:38:02.526Z,144.00